Time;durP1;ratioP1;P1;durP2;ratioP2;P2;SDS_P1;SDS_P2;PMS_P1;PMS_P2;Temp;Humidity;BMP_temperature;BMP_pressure;BME280_temperature;BME280_humidity;BME280_pressure;Samples;Min_cycle;Max_cycle;Signal;HPM_P1;HPM_P2
2021/11/08 00:01:10;;;;;;;27.48;10.00;;;;;;;7.59;79.67;101659.25;5051580;28;20036;-80
2021/11/08 00:03:41;;;;;;;22.13;10.27;;;;;;;7.62;79.67;101658.66;5052656;28;20047;-80
2021/11/08 00:06:08;;;;;;;18.55;8.75;;;;;;;7.64;79.86;101645.38;5052306;28;20086;-79
2021/11/08 00:08:37;;;;;;;31.23;9.90;;;;;;;7.66;79.81;101637.63;5035938;28;20103;-79
2021/11/08 00:11:05;;;;;;;24.17;11.65;;;;;;;7.67;79.94;101635.69;5053577;28;20111;-79
2021/11/08 00:13:33;;;;;;;29.00;11.70;;;;;;;7.71;79.86;101629.25;5053809;28;20040;-80
2021/11/08 00:21:29;;;;;;;26.05;10.70;;;;;;;7.77;79.79;101628.06;5056517;28;20064;-79
2021/11/08 00:23:55;;;;;;;36.42;10.57;;;;;;;7.82;79.84;101627.13;5038263;28;20147;-79
2021/11/08 00:26:22;;;;;;;22.70;10.00;;;;;;;7.84;79.75;101628.47;5057153;28;20072;-79
2021/11/08 00:28:49;;;;;;;28.52;11.77;;;;;;;7.88;79.87;101636.94;5057043;28;20657;-79
2021/11/08 00:31:16;;;;;;;22.98;9.20;;;;;;;7.90;79.79;101632.75;5056065;28;20044;-79
2021/11/08 00:33:43;;;;;;;22.52;10.93;;;;;;;7.91;80.11;101628.88;5052722;28;20128;-79
2021/11/08 00:36:13;;;;;;;25.17;9.40;;;;;;;7.93;79.79;101629.41;5057883;28;20079;-79
2021/11/08 00:38:39;;;;;;;19.25;8.52;;;;;;;7.96;80.06;101625.22;5056529;28;20052;-79
2021/11/08 00:41:06;;;;;;;25.90;9.27;;;;;;;7.97;80.01;101633.16;5057111;28;20032;-80
2021/11/08 00:43:33;;;;;;;22.52;9.85;;;;;;;7.98;80.30;101629.28;5056339;28;20094;-79
2021/11/08 00:46:00;;;;;;;21.55;9.55;;;;;;;7.99;80.03;101622.63;5039472;28;20676;-79
2021/11/08 00:48:31;;;;;;;24.52;10.00;;;;;;;8.01;80.13;101624.28;5056524;28;20117;-79
2021/11/08 00:50:58;;;;;;;25.02;11.18;;;;;;;8.02;80.23;101626.75;5037575;28;20110;-79
2021/11/08 00:53:25;;;;;;;22.95;10.20;;;;;;;8.05;80.28;101617.03;5055782;28;20404;-80
2021/11/08 00:55:53;;;;;;;26.00;9.73;;;;;;;8.05;80.14;101623.34;5054917;28;20177;-79
2021/11/08 00:58:38;;;;;;;22.58;8.45;;;;;;;8.04;80.25;101618.97;5053835;28;20090;-79
2021/11/08 01:01:08;;;;;;;27.52;9.77;;;;;;;8.05;80.22;101611.53;5055547;28;20099;-79
2021/11/08 01:03:41;;;;;;;19.88;8.82;;;;;;;8.04;80.24;101612.63;5056513;28;20106;-80
2021/11/08 01:06:09;;;;;;;16.63;7.70;;;;;;;8.06;80.23;101618.66;5054739;28;20136;-78
2021/11/08 01:08:36;;;;;;;20.35;7.50;;;;;;;8.09;80.38;101612.53;5054547;28;20264;-79
2021/11/08 01:11:04;;;;;;;15.20;6.45;;;;;;;8.12;80.26;101600.88;5053464;28;20131;-80
2021/11/08 01:13:30;;;;;;;24.83;6.78;;;;;;;8.14;80.43;101602.22;5052370;28;20090;-79
2021/11/08 01:15:57;;;;;;;16.20;5.50;;;;;;;8.16;80.27;101596.38;5035828;28;20045;-79
2021/11/08 01:18:25;;;;;;;15.45;5.80;;;;;;;8.20;80.21;101602.94;5053590;28;20041;-80
2021/11/08 01:20:52;;;;;;;16.55;6.22;;;;;;;8.23;80.26;101597.63;5052230;28;20049;-80
2021/11/08 01:23:28;;;;;;;23.10;7.53;;;;;;;8.26;80.16;101596.19;5054873;28;20145;-80
2021/11/08 01:26:10;;;;;;;13.82;5.75;;;;;;;8.27;80.33;101586.78;5050994;28;20121;-80
2021/11/08 01:28:45;;;;;;;19.90;5.90;;;;;;;8.28;80.22;101588.44;5055987;28;20126;-79
2021/11/08 01:31:13;;;;;;;14.07;6.18;;;;;;;8.28;80.35;101578.22;5052664;28;20064;-80
2021/11/08 01:33:43;;;;;;;17.67;5.97;;;;;;;8.32;80.19;101589.44;5035106;28;20041;-79
2021/11/08 01:36:13;;;;;;;17.35;6.95;;;;;;;8.32;80.22;101581.16;5051438;28;20124;-80
2021/11/08 01:38:49;;;;;;;16.80;6.05;;;;;;;8.34;80.38;101592.72;5037238;28;22278;-79
2021/11/08 01:41:21;;;;;;;17.48;6.57;;;;;;;8.34;80.60;101581.69;5051952;28;20039;-79
2021/11/08 01:43:49;;;;;;;18.83;5.53;;;;;;;8.36;80.47;101583.00;5055524;28;20492;-79
2021/11/08 01:46:18;;;;;;;15.18;4.80;;;;;;;8.38;80.56;101589.03;5051333;28;20131;-79
2021/11/08 01:48:46;;;;;;;18.85;5.07;;;;;;;8.38;80.50;101578.00;5053836;28;20136;-80
2021/11/08 01:51:14;;;;;;;16.52;4.88;;;;;;;8.39;80.73;101573.28;5054756;28;20039;-79
2021/11/08 01:53:41;;;;;;;14.43;5.45;;;;;;;8.41;80.65;101568.28;5053837;28;20129;-80
2021/11/08 01:56:08;;;;;;;19.95;5.15;;;;;;;8.42;80.76;101567.13;5054433;28;20466;-79
2021/11/08 01:58:37;;;;;;;18.30;4.47;;;;;;;8.41;80.81;101566.34;5035703;28;20082;-80
2021/11/08 02:01:04;;;;;;;14.57;4.78;;;;;;;8.42;80.78;101561.63;5050341;28;20148;-79
2021/11/08 02:03:32;;;;;;;16.05;6.20;;;;;;;8.41;80.78;101555.31;5035983;28;20413;-79
2021/11/08 02:05:59;;;;;;;14.68;6.00;;;;;;;8.42;80.84;101553.34;5035110;28;20131;-79
2021/11/08 02:08:27;;;;;;;13.52;4.95;;;;;;;8.44;80.91;101551.94;5036789;28;20041;-80
2021/11/08 02:10:55;;;;;;;11.77;3.40;;;;;;;8.44;80.95;101540.88;5053757;28;20044;-79
2021/11/08 02:13:25;;;;;;;12.05;4.85;;;;;;;8.45;80.94;101541.69;5052332;28;20775;-79
2021/11/08 02:15:51;;;;;;;13.43;4.35;;;;;;;8.44;81.05;101537.31;5050534;28;20140;-79
2021/11/08 02:18:21;;;;;;;16.30;4.60;;;;;;;8.45;80.94;101536.97;5033464;28;20416;-80
2021/11/08 02:20:49;;;;;;;18.23;4.70;;;;;;;8.46;81.21;101540.56;5052777;28;20124;-80
2021/11/08 02:23:18;;;;;;;13.60;4.20;;;;;;;8.44;81.29;101529.84;5054208;28;20107;-80
2021/11/08 02:25:47;;;;;;;14.27;4.13;;;;;;;8.46;81.46;101532.28;5052832;28;20040;-79
2021/11/08 02:28:15;;;;;;;8.38;4.75;;;;;;;8.46;81.36;101535.03;5035618;28;20195;-79
2021/11/08 02:30:44;;;;;;;19.55;4.25;;;;;;;8.47;81.29;101525.66;5052129;28;20048;-80
2021/11/08 02:33:15;;;;;;;14.68;3.63;;;;;;;8.48;81.66;101527.25;5054720;28;20463;-80
2021/11/08 02:35:44;;;;;;;13.40;3.80;;;;;;;8.49;81.33;101529.72;5053089;28;20661;-79
2021/11/08 02:38:23;;;;;;;14.43;4.00;;;;;;;8.51;81.61;101526.66;5054805;28;20176;-79
2021/11/08 02:40:54;;;;;;;16.55;5.43;;;;;;;8.51;81.52;101521.13;5051284;28;20037;-80
2021/11/08 02:43:24;;;;;;;16.58;3.85;;;;;;;8.52;81.64;101517.25;5054001;28;20117;-79
2021/11/08 02:46:06;;;;;;;17.80;4.55;;;;;;;8.52;81.78;101520.00;5049988;28;20461;-80
2021/11/08 02:48:35;;;;;;;11.25;4.68;;;;;;;8.51;81.90;101521.94;5054717;28;20652;-79
2021/11/08 02:51:08;;;;;;;16.85;4.38;;;;;;;8.51;81.99;101512.84;5050935;28;20061;-79
2021/11/08 02:53:38;;;;;;;18.33;4.50;;;;;;;8.53;81.99;101513.34;5051163;28;20046;-79
2021/11/08 02:56:08;;;;;;;25.58;4.90;;;;;;;8.54;82.01;101515.81;5054654;28;20044;-78
2021/11/08 02:58:37;;;;;;;16.35;4.28;;;;;;;8.54;82.18;101514.97;5053779;28;20180;-79
2021/11/08 03:01:07;;;;;;;16.52;4.88;;;;;;;8.56;82.32;101504.44;5054892;28;20086;-79
2021/11/08 03:03:57;;;;;;;14.45;3.95;;;;;;;8.57;82.37;101503.31;5054437;28;20064;-78
2021/11/08 03:08:58;;;;;;;18.45;4.25;;;;;;;8.57;82.65;101497.81;5052998;28;20076;-79
2021/11/08 03:11:26;;;;;;;10.85;3.58;;;;;;;8.57;82.61;101493.09;5049695;28;20072;-79
2021/11/08 03:14:05;;;;;;;17.50;5.00;;;;;;;8.58;82.62;101493.91;5051491;28;20090;-79
2021/11/08 03:19:17;;;;;;;9.77;3.45;;;;;;;8.55;83.00;101475.22;5053276;28;20048;-79
2021/11/08 03:21:47;;;;;;;12.25;3.80;;;;;;;8.54;83.16;101470.81;5051598;28;20045;-79
2021/11/08 03:24:19;;;;;;;14.95;3.92;;;;;;;8.54;83.39;101470.81;5051811;28;20075;-80
2021/11/08 03:26:52;;;;;;;16.40;5.00;;;;;;;8.54;83.38;101459.78;5053601;28;20453;-79
2021/11/08 03:29:19;;;;;;;15.52;4.20;;;;;;;8.54;83.79;101468.06;5052392;28;20043;-80
2021/11/08 03:31:48;;;;;;;9.70;3.92;;;;;;;8.54;83.81;101455.09;5051509;28;20144;-79
2021/11/08 03:34:17;;;;;;;14.15;3.97;;;;;;;8.56;83.96;101463.03;5054993;28;20067;-79
2021/11/08 03:36:44;;;;;;;14.73;3.72;;;;;;;8.55;84.20;101456.69;5048160;28;20079;-79
2021/11/08 03:39:13;;;;;;;19.10;4.30;;;;;;;8.56;84.25;101458.34;5052345;28;20072;-79
2021/11/08 03:41:41;;;;;;;17.50;5.50;;;;;;;8.57;84.42;101459.16;5050059;28;20045;-79
2021/11/08 03:44:08;;;;;;;14.57;3.58;;;;;;;8.57;84.55;101459.16;5051264;28;20484;-79
2021/11/08 03:46:35;;;;;;;12.80;4.40;;;;;;;8.57;84.96;101459.16;5051930;28;20044;-79
2021/11/08 03:49:01;;;;;;;9.13;3.38;;;;;;;8.59;85.11;101451.38;5053725;28;20091;-80
2021/11/08 03:51:28;;;;;;;14.70;3.45;;;;;;;8.60;85.24;101455.78;5032702;28;20144;-79
2021/11/08 03:53:55;;;;;;;10.68;3.33;;;;;;;8.61;85.40;101453.81;5052233;28;20069;-79
2021/11/08 03:56:24;;;;;;;14.30;4.30;;;;;;;8.63;85.54;101448.81;5050597;28;20024;-80
2021/11/08 03:58:51;;;;;;;17.38;3.17;;;;;;;8.63;85.72;101452.38;5048011;28;20370;-80
2021/11/08 04:01:18;;;;;;;12.85;3.75;;;;;;;8.63;85.77;101449.59;5050876;28;20127;-79
2021/11/08 04:03:45;;;;;;;12.15;3.35;;;;;;;8.64;85.99;101440.19;5049655;28;20129;-79
2021/11/08 04:06:12;;;;;;;10.63;3.20;;;;;;;8.64;86.00;101429.16;5049889;28;20167;-80
2021/11/08 04:08:39;;;;;;;10.75;3.25;;;;;;;8.65;86.08;101430.81;5053121;28;20071;-79
2021/11/08 04:11:07;;;;;;;12.40;3.70;;;;;;;8.65;86.44;101427.22;5031650;28;20037;-80
2021/11/08 04:13:38;;;;;;;12.95;3.67;;;;;;;8.65;86.47;101425.28;5048563;28;20097;-79
2021/11/08 04:16:06;;;;;;;18.80;3.30;;;;;;;8.65;86.59;101422.53;5050720;28;20045;-79
2021/11/08 04:18:34;;;;;;;12.30;2.85;;;;;;;8.68;86.74;101429.34;5033606;28;20051;-79
2021/11/08 04:21:02;;;;;;;16.83;2.72;;;;;;;8.68;86.76;101432.94;5050810;28;20119;-79
2021/11/08 04:23:29;;;;;;;12.00;4.05;;;;;;;8.70;86.89;101441.72;5051618;28;20068;-80
2021/11/08 04:26:01;;;;;;;7.68;2.50;;;;;;;8.69;87.01;101440.06;5053440;28;20580;-79
2021/11/08 04:28:28;;;;;;;14.55;3.33;;;;;;;8.71;87.09;101437.81;5052227;28;20123;-79
2021/11/08 04:30:55;;;;;;;17.67;3.28;;;;;;;8.72;87.41;101433.09;5050462;28;20068;-79
2021/11/08 04:33:27;;;;;;;19.60;4.30;;;;;;;8.72;87.63;101435.84;5050861;28;20125;-80
2021/11/08 04:36:44;;;;;;;15.43;3.45;;;;;;;8.73;87.76;101430.03;5053398;28;20072;-79
2021/11/08 04:39:30;;;;;;;12.95;3.08;;;;;;;8.74;87.73;101431.66;5044960;28;20081;-79
2021/11/08 04:52:58;;;;;;;6.88;2.60;;;;;;;8.79;88.19;101414.94;5053403;28;20126;-80
2021/11/08 05:30:39;;;;;;;19.23;4.63;;;;;;;8.95;89.74;101380.25;5054114;28;20072;-80
2021/11/08 05:33:06;;;;;;;18.10;5.15;;;;;;;8.96;89.86;101381.91;5054940;28;20041;-80
2021/11/08 05:35:33;;;;;;;9.48;3.10;;;;;;;8.98;89.87;101376.88;5055644;28;20439;-80
2021/11/08 05:38:05;;;;;;;7.88;3.30;;;;;;;9.01;90.13;101378.19;5019044;28;20416;-80
2021/11/08 05:40:33;;;;;;;;;;;;;;;9.01;90.31;101378.19;5053325;28;20049;-80
2021/11/08 05:43:02;;;;;;;11.70;3.60;;;;;;;9.02;90.07;101375.13;5053800;28;20018;-79
2021/11/08 05:45:33;;;;;;;13.63;3.47;;;;;;;9.05;90.24;101373.66;5053302;28;20127;-80
2021/11/08 05:48:05;;;;;;;10.45;2.67;;;;;;;9.05;90.42;101377.22;5055156;28;20076;-79
2021/11/08 05:50:33;;;;;;;12.95;3.35;;;;;;;9.08;90.59;101375.78;5053595;28;20068;-80
2021/11/08 05:53:01;;;;;;;5.05;2.38;;;;;;;9.10;90.68;101368.81;5035512;28;20670;-80
2021/11/08 06:50:25;;;;;;;21.83;6.63;;;;;;;9.48;92.79;101304.66;5053177;28;20470;-79
2021/11/08 06:52:57;;;;;;;12.25;5.05;;;;;;;9.50;92.92;101307.94;5055765;28;20142;-80
2021/11/08 06:55:23;;;;;;;19.10;6.68;;;;;;;9.51;92.89;101304.00;5033980;28;20492;-80
2021/11/08 06:57:56;;;;;;;10.40;3.95;;;;;;;9.52;93.20;101311.19;5050416;28;20144;-80
2021/11/08 07:00:26;;;;;;;12.20;4.43;;;;;;;9.52;93.19;101297.34;5051855;28;20052;-80
2021/11/08 07:02:53;;;;;;;14.55;4.40;;;;;;;9.53;93.22;101296.22;5053341;28;20044;-80
2021/11/08 07:05:20;;;;;;;12.95;3.45;;;;;;;9.54;93.27;101290.38;5051943;28;20400;-80
2021/11/08 07:07:47;;;;;;;12.00;3.67;;;;;;;9.57;93.40;101294.44;5054042;28;20039;-79
2021/11/08 07:10:19;;;;;;;10.63;3.97;;;;;;;9.57;93.51;101288.91;5052976;28;20043;-80
2021/11/08 07:12:47;;;;;;;;;;;;;;;9.55;93.92;101296.72;5053603;28;20192;-80
2021/11/08 07:15:14;;;;;;;15.05;4.22;;;;;;;9.56;93.31;101295.56;5051926;28;19950;-80
2021/11/08 07:17:41;;;;;;;14.63;3.53;;;;;;;9.56;93.37;101306.59;5051314;28;20049;-80
2021/11/08 07:20:08;;;;;;;8.35;3.55;;;;;;;9.58;93.43;101307.13;5049238;28;20705;-80
2021/11/08 07:22:35;;;;;;;9.45;3.58;;;;;;;9.59;93.31;101308.72;5053744;28;20082;-80
2021/11/08 07:25:02;;;;;;;15.18;4.13;;;;;;;9.59;93.66;101303.19;5034750;28;20527;-80
2021/11/08 07:27:29;;;;;;;15.65;3.97;;;;;;;9.62;93.76;101308.09;5032454;28;20908;-79
2021/11/08 07:29:56;;;;;;;18.75;4.53;;;;;;;9.64;93.96;101303.03;5051584;28;20076;-80
2021/11/08 07:32:24;;;;;;;12.40;4.18;;;;;;;9.66;93.93;101300.78;5052096;28;20488;-79
2021/11/08 07:34:53;;;;;;;17.08;4.93;;;;;;;9.68;94.10;101299.31;5032617;28;20469;-79
2021/11/08 07:37:20;;;;;;;17.67;5.65;;;;;;;9.70;94.32;101299.78;5050228;28;20075;-80
2021/11/08 07:39:48;;;;;;;14.18;6.10;;;;;;;9.71;94.45;101290.38;5053037;28;20132;-80
2021/11/08 07:42:15;;;;;;;15.32;5.68;;;;;;;9.74;94.54;101299.97;5052923;28;20090;-79
2021/11/08 07:44:42;;;;;;;27.23;6.15;;;;;;;9.75;94.81;101299.63;5050814;28;20057;-81
2021/11/08 07:47:10;;;;;;;20.45;6.40;;;;;;;9.78;94.90;101296.22;5049153;28;20080;-79
2021/11/08 07:49:39;;;;;;;16.33;5.55;;;;;;;9.82;94.97;101292.81;5049791;28;20500;-80
2021/11/08 07:52:08;;;;;;;20.85;6.35;;;;;;;9.82;95.05;101308.22;5031148;28;20077;-79
2021/11/08 07:54:37;;;;;;;17.85;5.53;;;;;;;9.85;95.24;101298.47;5054132;28;20075;-79
2021/11/08 07:57:04;;;;;;;18.90;5.60;;;;;;;9.87;95.42;101292.63;5053779;28;20158;-79
2021/11/08 07:59:31;;;;;;;21.08;7.07;;;;;;;9.91;95.28;101288.06;5054129;28;20045;-79
2021/11/08 08:02:04;;;;;;;14.27;5.35;;;;;;;9.93;95.72;101294.09;5052870;28;20071;-79
2021/11/08 08:04:30;;;;;;;22.33;7.65;;;;;;;9.96;95.89;101283.16;5034467;28;20136;-80
2021/11/08 08:06:59;;;;;;;20.30;6.38;;;;;;;10.01;95.91;101283.00;5052057;28;20044;-80
2021/11/08 08:09:26;;;;;;;24.08;7.13;;;;;;;10.03;96.11;101277.97;5034633;28;20064;-79
2021/11/08 08:11:53;;;;;;;24.58;6.72;;;;;;;10.06;96.15;101288.34;5052368;28;20044;-79
2021/11/08 08:14:20;;;;;;;14.15;5.00;;;;;;;10.10;96.32;101289.34;5055961;28;20040;-79
2021/11/08 08:16:47;;;;;;;19.58;6.00;;;;;;;10.13;96.46;101285.94;5052942;28;20141;-79
2021/11/08 08:19:14;;;;;;;16.45;5.45;;;;;;;10.16;96.56;101279.75;5052955;28;20125;-80
2021/11/08 08:21:41;;;;;;;16.75;5.70;;;;;;;10.19;96.60;101289.34;5051906;28;20072;-79
2021/11/08 08:24:08;;;;;;;22.10;5.85;;;;;;;10.22;96.71;101277.59;5053505;28;20122;-80
2021/11/08 08:26:41;;;;;;;14.82;4.82;;;;;;;10.24;96.80;101289.19;5053470;28;20080;-79
2021/11/08 08:29:10;;;;;;;12.18;5.28;;;;;;;10.25;97.04;101283.31;5052170;28;20072;-80
2021/11/08 08:31:41;;;;;;;10.88;5.15;;;;;;;10.27;97.13;101277.47;5051637;28;20051;-84
2021/11/08 08:34:10;;;;;;;15.67;5.23;;;;;;;10.28;96.88;101288.19;5027721;28;20076;-79
2021/11/08 08:36:38;;;;;;;18.30;6.40;;;;;;;10.29;97.05;101289.81;5034959;28;20079;-79
2021/11/08 08:39:07;;;;;;;12.27;6.38;;;;;;;10.32;97.43;101289.16;5056967;28;20458;-80
2021/11/08 08:41:35;;;;;;;12.50;4.97;;;;;;;10.35;97.62;101287.69;5061292;28;20036;-80
2021/11/08 08:44:03;;;;;;;10.40;5.30;;;;;;;10.38;97.68;101290.59;5057604;28;20140;-80
2021/11/08 08:46:30;;;;;;;12.65;5.82;;;;;;;10.42;97.72;101287.16;5059303;28;20566;-79
2021/11/08 08:48:59;;;;;;;10.25;5.70;;;;;;;10.42;97.86;101292.69;5060746;28;20130;-79
2021/11/08 08:51:26;;;;;;;8.73;5.90;;;;;;;10.44;98.08;101279.34;5037693;28;20083;-79
2021/11/08 08:53:53;;;;;;;18.50;6.00;;;;;;;10.47;98.12;101296.09;5051474;28;20036;-79
2021/11/08 08:56:22;;;;;;;13.40;6.40;;;;;;;10.49;98.18;101284.69;5058642;28;20036;-79
2021/11/08 08:58:53;;;;;;;10.73;5.47;;;;;;;10.51;98.27;101282.41;5055642;28;20064;-79
2021/11/08 09:01:21;;;;;;;9.10;5.22;;;;;;;10.53;98.27;101274.59;5055854;28;20135;-81
2021/11/08 09:03:47;;;;;;;8.35;4.82;;;;;;;10.55;98.57;101280.59;5061783;28;20091;-81
2021/11/08 09:06:14;;;;;;;13.60;5.82;;;;;;;10.60;98.71;101277.63;5055510;28;20048;-81
2021/11/08 09:08:42;;;;;;;13.23;6.35;;;;;;;10.65;98.71;101274.69;5043742;28;20115;-81
2021/11/08 09:11:09;;;;;;;9.07;4.78;;;;;;;10.67;98.68;101277.97;5062333;28;20044;-80
2021/11/08 09:13:37;;;;;;;9.85;4.28;;;;;;;10.70;98.59;101282.81;5042299;28;20040;-80
2021/11/08 09:16:11;;;;;;;10.57;5.95;;;;;;;10.73;98.67;101277.41;5054278;28;20045;-80
2021/11/08 09:18:40;;;;;;;11.73;5.82;;;;;;;10.77;98.94;101277.56;5056699;28;20037;-82
2021/11/08 09:21:12;;;;;;;11.13;4.03;;;;;;;10.81;99.16;101272.97;5057164;28;20047;-84
2021/11/08 09:23:40;;;;;;;8.70;4.70;;;;;;;10.86;99.27;101264.47;5059524;28;20637;-79
2021/11/08 09:26:07;;;;;;;12.35;5.40;;;;;;;10.91;99.17;101278.13;5042880;28;20577;-79
2021/11/08 09:28:34;;;;;;;10.23;4.72;;;;;;;10.95;99.43;101268.03;5055207;28;20140;-80
2021/11/08 09:31:01;;;;;;;7.60;4.03;;;;;;;10.99;99.35;101275.31;5055553;28;20083;-80
2021/11/08 09:33:28;;;;;;;8.98;3.72;;;;;;;11.04;99.28;101271.53;5059265;28;20053;-79
2021/11/08 09:35:59;;;;;;;9.35;2.78;;;;;;;11.09;99.73;101284.41;5058956;28;20105;-78
2021/11/08 09:38:26;;;;;;;4.28;2.97;;;;;;;11.13;99.84;101280.63;5062117;28;20049;-78
2021/11/08 09:40:53;;;;;;;4.70;2.40;;;;;;;11.18;99.75;101294.28;5062259;28;20075;-78
2021/11/08 09:43:24;;;;;;;7.13;3.05;;;;;;;11.26;99.98;101281.50;5055410;28;20045;-78
2021/11/08 09:45:51;;;;;;;4.13;2.00;;;;;;;11.30;100.00;101286.06;5055457;28;20121;-78
2021/11/08 09:48:20;;;;;;;4.90;1.90;;;;;;;11.36;100.00;101283.88;5043205;28;20098;-78
2021/11/08 09:50:48;;;;;;;4.80;1.95;;;;;;;11.39;99.99;101278.47;5052694;28;20070;-78
2021/11/08 09:53:16;;;;;;;4.75;2.17;;;;;;;11.48;100.00;101279.22;5038254;28;20036;-78
2021/11/08 09:55:46;;;;;;;5.70;1.67;;;;;;;11.59;100.00;101282.41;5054799;28;20400;-78
2021/11/08 09:58:14;;;;;;;3.88;1.35;;;;;;;11.67;100.00;101280.72;5033512;28;20620;-80
2021/11/08 10:00:49;;;;;;;1.67;0.90;;;;;;;11.79;100.00;101283.56;5038769;28;20045;-78
2021/11/08 10:03:25;;;;;;;2.25;0.60;;;;;;;11.86;100.00;101276.31;5057626;28;20074;-78
2021/11/08 10:05:55;;;;;;;4.28;1.25;;;;;;;11.94;100.00;101271.84;5043797;28;20041;-78
2021/11/08 10:08:29;;;;;;;2.72;0.75;;;;;;;12.00;100.00;101270.47;5057984;28;20055;-79
2021/11/08 10:10:59;;;;;;;1.92;1.17;;;;;;;12.03;100.00;101264.22;5046475;28;20060;-79
2021/11/08 10:13:32;;;;;;;5.18;0.80;;;;;;;12.09;100.00;101257.31;5054419;28;20064;-78
2021/11/08 10:16:04;;;;;;;2.05;0.70;;;;;;;12.14;100.00;101255.13;5055392;28;20041;-79
2021/11/08 10:18:32;;;;;;;2.85;1.45;;;;;;;12.21;100.00;101249.81;5056580;28;20040;-79
2021/11/08 10:21:09;;;;;;;3.00;0.70;;;;;;;12.26;100.00;101246.00;5040466;28;20044;-79
2021/11/08 10:23:39;;;;;;;5.03;0.90;;;;;;;12.28;100.00;101249.28;5049455;28;20128;-79
2021/11/08 10:26:13;;;;;;;1.80;0.80;;;;;;;12.32;100.00;101250.19;5030426;28;20151;-79
2021/11/08 10:28:40;;;;;;;5.40;1.13;;;;;;;12.36;100.00;101250.31;5053797;28;20080;-79
2021/11/08 10:31:12;;;;;;;8.57;0.90;;;;;;;12.38;100.00;101251.59;5036521;28;20064;-79
2021/11/08 10:33:41;;;;;;;4.07;0.70;;;;;;;12.42;100.00;101246.13;5060668;28;20125;-79
2021/11/08 10:36:26;;;;;;;3.83;2.08;;;;;;;12.46;99.75;101250.69;5064004;28;20485;-79
2021/11/08 10:38:56;;;;;;;6.03;1.60;;;;;;;12.51;99.71;101235.75;5054203;28;20567;-79
2021/11/08 10:41:26;;;;;;;8.23;0.73;;;;;;;12.57;99.67;101251.03;5038968;28;20044;-79
2021/11/08 10:43:56;;;;;;;6.70;0.80;;;;;;;12.62;99.42;101251.63;5053650;28;20503;-79
2021/11/08 10:46:35;;;;;;;5.03;1.23;;;;;;;12.71;99.22;101252.31;5056844;28;20044;-79
2021/11/08 10:49:12;;;;;;;4.07;0.98;;;;;;;12.77;99.15;101239.81;5055208;28;20102;-79
2021/11/08 10:51:42;;;;;;;4.32;0.80;;;;;;;12.84;98.77;101240.03;5041727;28;20311;-79
2021/11/08 10:54:14;;;;;;;5.07;1.35;;;;;;;12.88;98.69;101239.34;5039232;28;20033;-79
2021/11/08 10:56:53;;;;;;;4.60;1.05;;;;;;;12.93;98.44;101236.31;5036365;28;20098;-78
2021/11/08 10:59:22;;;;;;;3.08;0.93;;;;;;;12.97;98.12;101237.25;5053312;28;20044;-80
2021/11/08 11:01:52;;;;;;;2.80;0.80;;;;;;;13.01;97.93;101235.38;5056649;28;20075;-79
2021/11/08 11:04:49;;;;;;;4.03;0.77;;;;;;;13.07;97.73;101234.03;5057966;28;20036;-79
2021/11/08 11:07:32;;;;;;;6.22;1.17;;;;;;;13.14;97.51;101220.31;5056554;28;20386;-79
2021/11/08 11:10:05;;;;;;;4.45;1.13;;;;;;;13.20;97.27;101207.81;5050885;28;20041;-79
2021/11/08 11:12:32;;;;;;;4.72;0.70;;;;;;;13.25;96.90;101210.34;5052347;28;20125;-79
2021/11/08 11:15:09;;;;;;;9.82;0.90;;;;;;;13.30;96.63;101212.88;5055058;28;20095;-79
2021/11/08 11:17:58;;;;;;;3.13;0.77;;;;;;;13.35;95.87;101204.28;5052244;28;20300;-79
2021/11/08 11:20:33;;;;;;;6.95;0.95;;;;;;;13.37;95.65;101191.63;5052042;28;20439;-79
2021/11/08 11:23:15;;;;;;;1.27;0.70;;;;;;;13.40;95.52;101195.69;5053042;28;20048;-79
2021/11/08 11:25:53;;;;;;;2.58;0.70;;;;;;;13.42;95.17;101204.50;5003787;28;20049;-79
2021/11/08 11:28:33;;;;;;;6.97;1.02;;;;;;;13.44;95.03;101210.53;4981802;28;20057;-79
2021/11/08 11:31:00;;;;;;;5.53;0.85;;;;;;;13.48;94.61;101205.84;5017605;28;20044;-79
2021/11/08 11:33:29;;;;;;;2.25;0.55;;;;;;;13.51;94.76;101196.00;5048811;28;20053;-79
2021/11/08 11:36:08;;;;;;;4.20;0.68;;;;;;;13.55;94.29;101208.88;5053689;28;20435;-79
2021/11/08 11:38:44;;;;;;;8.88;0.80;;;;;;;13.57;94.35;101206.53;5048430;28;20088;-79
2021/11/08 11:41:21;;;;;;;3.70;0.60;;;;;;;13.61;94.15;101207.41;5041258;28;20066;-79
2021/11/08 11:43:52;;;;;;;3.42;0.70;;;;;;;13.66;94.04;101209.16;5057100;28;20144;-79
2021/11/08 11:46:21;;;;;;;6.68;1.02;;;;;;;13.69;93.67;101192.53;5035630;28;20091;-79
2021/11/08 11:48:50;;;;;;;7.40;1.23;;;;;;;13.76;93.64;101192.75;5051446;28;20428;-79
2021/11/08 11:51:21;;;;;;;2.28;0.90;;;;;;;13.81;93.43;101200.03;5038264;28;20053;-78
2021/11/08 11:53:49;;;;;;;5.73;0.60;;;;;;;13.83;92.96;101204.09;5034017;28;20037;-81
2021/11/08 11:56:17;;;;;;;12.93;0.90;;;;;;;13.85;92.75;101190.63;5037024;28;20285;-79
2021/11/08 11:58:45;;;;;;;3.28;0.70;;;;;;;13.86;92.62;101191.44;5037492;28;20044;-79
2021/11/08 12:01:15;;;;;;;6.10;0.70;;;;;;;13.88;92.53;101195.47;5051138;28;20091;-79
2021/11/08 12:03:42;;;;;;;5.78;1.30;;;;;;;13.91;92.35;101205.09;5038327;28;20040;-79
2021/11/08 12:06:31;;;;;;;2.45;0.90;;;;;;;13.92;91.61;101188.03;5034319;28;20115;-79
2021/11/08 12:09:00;;;;;;;8.05;0.90;;;;;;;13.96;91.72;101182.53;5056585;28;20048;-79
2021/11/08 12:11:37;;;;;;;3.38;1.10;;;;;;;13.98;91.32;101175.44;5055562;28;20542;-79
2021/11/08 12:14:12;;;;;;;5.85;1.52;;;;;;;14.01;91.32;101174.75;5058735;28;20033;-79
2021/11/08 12:17:03;;;;;;;6.22;1.52;;;;;;;14.06;90.91;101176.44;5054456;28;20136;-79
2021/11/08 12:19:37;;;;;;;3.67;0.80;;;;;;;14.08;90.90;101156.63;5040049;28;20051;-79
2021/11/08 12:22:16;;;;;;;12.18;2.15;;;;;;;14.11;90.72;101158.69;5057576;28;20055;-79
2021/11/08 12:25:15;;;;;;;3.05;0.82;;;;;;;14.14;90.02;101147.63;5032271;28;20052;-79
2021/11/08 12:27:55;;;;;;;4.68;0.73;;;;;;;14.17;89.65;101140.53;5039086;28;20036;-79
2021/11/08 12:30:34;;;;;;;2.20;0.63;;;;;;;14.19;89.17;101141.00;5050334;28;20105;-79
2021/11/08 12:33:21;;;;;;;5.70;1.23;;;;;;;14.21;89.07;101135.88;5035716;28;20067;-79
2021/11/08 12:35:48;;;;;;;4.28;1.02;;;;;;;14.25;89.22;101139.53;5033058;28;20072;-78
2021/11/08 12:38:17;;;;;;;13.43;2.17;;;;;;;14.28;88.75;101136.84;5053637;28;20045;-79
2021/11/08 12:40:46;;;;;;;2.47;0.55;;;;;;;14.32;88.70;101137.75;5034559;28;20484;-79
2021/11/08 12:43:27;;;;;;;7.38;1.65;;;;;;;14.36;88.18;101143.41;5035769;28;20121;-79
2021/11/08 12:45:54;;;;;;;5.63;0.82;;;;;;;14.38;88.41;101138.28;5049423;28;20061;-79
2021/11/08 12:48:32;;;;;;;4.88;0.73;;;;;;;14.40;88.25;101139.53;5037588;28;20095;-79
2021/11/08 12:51:01;;;;;;;7.13;2.22;;;;;;;14.46;88.06;101131.72;5037847;28;20052;-79
2021/11/08 12:53:34;;;;;;;5.68;0.88;;;;;;;14.52;87.60;101141.41;5021390;28;20053;-79
2021/11/08 12:56:24;;;;;;;6.18;0.93;;;;;;;14.52;87.15;101135.84;5050150;28;20561;-79
2021/11/08 12:58:57;;;;;;;6.90;1.85;;;;;;;14.52;87.19;101130.28;5056318;28;20041;-79
2021/11/08 13:01:47;;;;;;;6.82;1.42;;;;;;;14.51;86.57;101135.03;5022000;28;20044;-79
2021/11/08 13:04:17;;;;;;;4.45;1.92;;;;;;;14.54;87.19;101136.28;5055851;28;20037;-79
2021/11/08 13:06:46;;;;;;;7.57;0.80;;;;;;;14.61;86.97;101134.47;5060829;28;20037;-78
2021/11/08 13:09:22;;;;;;;3.97;0.57;;;;;;;14.70;86.38;101139.84;5055693;28;20036;-78
2021/11/08 13:11:55;;;;;;;6.90;0.90;;;;;;;14.82;86.59;101131.38;5036032;28;20068;-78
2021/11/08 13:14:35;;;;;;;3.55;1.08;;;;;;;14.91;85.93;101139.53;5037002;28;20130;-81
2021/11/08 13:17:06;;;;;;;;;;;;;;;14.90;85.04;101140.72;5054408;28;20131;-83
2021/11/08 13:20:09;;;;;;;6.82;0.93;;;;;;;14.85;85.63;101133.41;5034616;28;20373;-79
2021/11/08 13:22:54;;;;;;;6.80;1.42;;;;;;;14.80;85.53;101133.72;5021499;28;20053;-82
2021/11/08 13:25:28;;;;;;;7.07;0.90;;;;;;;14.76;85.37;101132.84;5039253;28;20044;-83
2021/11/08 13:28:05;;;;;;;7.55;1.08;;;;;;;14.74;85.20;101124.03;5062544;28;20488;-84
2021/11/08 13:30:40;;;;;;;4.38;0.80;;;;;;;14.72;85.63;101126.34;5058447;28;20045;-83
2021/11/08 13:33:09;;;;;;;8.20;1.58;;;;;;;14.70;85.47;101131.50;5063156;28;20131;-83